Rockdale, Illinois
Current Conditions -  °F | °C
As of 9:55 AM on Thursday 23 Oct 2014 (Local Time) from KJOT Reporting Station
Clear Clear  
Wind Chill: 44°   Ceiling: Unl
Heat Index: 46°   Visibility: 10mi
Dew Point: 41°   Wind: 6mph
Humidity: 81%   Direction: 190°S
Pressure: 30.22"   Gusts: NA
Location:  41.4941°N, 88.1457°W
Report Text: KJOT 231455Z AUTO 19005KT 10SM CLR 08/05 A3022 RMK AO2 T00800050
Loading
Personal Weather Stations






























Interactive Weather Map
Tropical Storm Tracking
New forecast layout! Learn more

10-Day Weather Forecast

Advertisements
Track Severe Weather on mobile